createdAt,value
2022-09-20T00:01:16.327Z,3.05
2022-09-20T00:03:47.742Z,5.70
2022-09-20T00:06:22.179Z,5.70
2022-09-20T00:08:49.241Z,3.30
2022-09-20T00:11:20.238Z,3.47
2022-09-20T00:13:48.992Z,3.70
2022-09-20T00:16:19.626Z,1.77
2022-09-20T00:18:50.544Z,2.28
2022-09-20T00:21:19.532Z,2.05
2022-09-20T00:23:46.013Z,2.53
2022-09-20T00:26:13.947Z,6.93
2022-09-20T00:28:41.729Z,5.05
2022-09-20T00:31:08.510Z,1.00
2022-09-20T00:33:53.596Z,2.45
2022-09-20T00:36:20.077Z,1.27
2022-09-20T00:38:47.694Z,3.95
2022-09-20T00:41:14.691Z,2.22
2022-09-20T00:43:44.288Z,4.90
2022-09-20T00:46:35.745Z,2.15
2022-09-20T00:49:18.021Z,1.52
2022-09-20T00:51:49.395Z,4.13
2022-09-20T00:54:20.560Z,2.78
2022-09-20T00:56:48.545Z,1.58
2022-09-20T00:59:19.807Z,1.95
2022-09-20T01:01:51.917Z,2.80
2022-09-20T01:04:22.787Z,2.08
2022-09-20T01:06:53.827Z,2.38
2022-09-20T01:09:22.940Z,0.98
2022-09-20T01:11:52.164Z,3.05
2022-09-20T01:14:19.632Z,2.63
2022-09-20T01:16:46.186Z,3.42
2022-09-20T01:19:51.542Z,6.88
2022-09-20T01:22:25.793Z,1.90
2022-09-20T01:25:09.504Z,4.13
2022-09-20T01:27:52.468Z,1.65
2022-09-20T01:30:23.808Z,2.78
2022-09-20T01:33:28.664Z,7.45
2022-09-20T01:35:58.847Z,2.63
2022-09-20T01:38:40.777Z,7.60
2022-09-20T01:41:18.850Z,1.10
2022-09-20T01:44:12.905Z,3.53
2022-09-20T01:46:42.499Z,3.17
2022-09-20T01:49:25.075Z,8.52
2022-09-20T01:52:26.937Z,1.75
2022-09-20T01:55:02.403Z,7.82
2022-09-20T01:58:06.424Z,5.07
2022-09-20T02:01:16.265Z,7.10
2022-09-20T02:04:23.306Z,1.85
2022-09-20T02:07:21.557Z,2.72
2022-09-20T02:10:11.013Z,5.88
2022-09-20T02:13:24.941Z,2.85
2022-09-20T02:16:05.329Z,12.60
2022-09-20T02:18:58.945Z,3.90
2022-09-20T02:21:50.289Z,7.43
2022-09-20T02:24:41.066Z,2.28
2022-09-20T02:27:26.190Z,4.35
2022-09-20T02:30:17.050Z,3.63
2022-09-20T02:32:53.588Z,1.58
2022-09-20T02:35:42.012Z,3.05
2022-09-20T02:38:22.276Z,4.68
2022-09-20T02:41:08.642Z,3.42
2022-09-20T02:43:47.441Z,2.70
2022-09-20T02:46:24.274Z,1.00
2022-09-20T02:49:21.611Z,2.13
2022-09-20T02:52:04.781Z,0.93
2022-09-20T02:54:34.326Z,4.47
2022-09-20T02:57:11.277Z,1.75
2022-09-20T02:59:46.940Z,1.70
2022-09-20T03:02:51.847Z,2.03
2022-09-20T03:05:23.882Z,4.55
2022-09-20T03:08:24.322Z,0.90
2022-09-20T03:11:24.847Z,1.85
2022-09-20T03:14:13.680Z,3.30
2022-09-20T03:17:17.459Z,2.60
2022-09-20T03:20:06.467Z,3.20
2022-09-20T03:23:18.726Z,3.47
2022-09-20T03:25:54.165Z,5.50
2022-09-20T03:28:58.316Z,5.05
2022-09-20T03:31:48.577Z,3.85
2022-09-20T03:34:46.043Z,1.67
2022-09-20T03:37:25.804Z,4.57
2022-09-20T03:40:11.125Z,5.55
2022-09-20T03:42:52.554Z,1.83
2022-09-20T03:45:44.903Z,3.38
2022-09-20T03:48:14.414Z,6.47
2022-09-20T03:51:13.051Z,2.78
2022-09-20T03:54:10.459Z,1.73
2022-09-20T03:57:10.239Z,4.80
2022-09-20T03:59:39.800Z,5.60
2022-09-20T04:02:29.867Z,1.42
2022-09-20T04:05:00.978Z,1.75
2022-09-20T04:07:33.340Z,4.13
2022-09-20T04:10:28.939Z,3.50
2022-09-20T04:13:17.234Z,7.75
2022-09-20T04:16:21.343Z,1.58
2022-09-20T04:19:33.050Z,2.40
2022-09-20T04:22:01.861Z,3.53
2022-09-20T04:24:28.999Z,3.65
2022-09-20T04:27:12.223Z,3.47
2022-09-20T04:30:46.475Z,5.53
2022-09-20T04:33:23.596Z,3.92
2022-09-20T04:36:30.216Z,4.32
2022-09-20T04:39:20.499Z,4.53
2022-09-20T04:42:11.462Z,2.70
2022-09-20T04:44:59.182Z,2.72
2022-09-20T04:47:42.517Z,8.32
2022-09-20T04:50:12.450Z,9.88
2022-09-20T04:53:15.770Z,2.80
2022-09-20T04:55:55.251Z,1.15
2022-09-20T04:59:04.716Z,3.25
2022-09-20T05:01:58.390Z,1.77
2022-09-20T05:04:50.117Z,3.25
2022-09-20T05:07:48.779Z,1.63
2022-09-20T05:10:41.097Z,5.40
2022-09-20T05:13:28.230Z,1.67
2022-09-20T05:16:04.338Z,3.50
2022-09-20T05:19:02.988Z,3.10
2022-09-20T05:21:46.627Z,1.95
2022-09-20T05:24:25.688Z,3.00
2022-09-20T05:27:07.857Z,2.53
2022-09-20T05:30:07.713Z,4.82
2022-09-20T05:33:02.538Z,4.03
2022-09-20T05:35:44.009Z,1.75
2022-09-20T05:38:50.029Z,3.38
2022-09-20T05:41:28.012Z,4.40
2022-09-20T05:44:29.577Z,5.78
2022-09-20T05:47:47.081Z,5.60
2022-09-20T05:50:44.795Z,2.70
2022-09-20T05:53:59.774Z,4.43
2022-09-20T05:56:50.961Z,3.42
2022-09-20T06:50:59.292Z,2.85
2022-09-20T06:55:54.878Z,2.17
2022-09-20T06:58:21.344Z,4.38
2022-09-20T07:00:55.624Z,5.70
2022-09-20T07:03:24.914Z,3.22
2022-09-20T07:06:00.918Z,9.40
2022-09-20T07:28:14.866Z,3.30
2022-09-20T07:30:46.199Z,4.05
2022-09-20T07:33:32.338Z,8.65
2022-09-20T07:39:51.533Z,10.88
2022-09-20T07:42:25.737Z,7.15
2022-09-20T07:44:55.887Z,8.65
2022-09-20T07:47:27.914Z,4.30
2022-09-20T07:49:56.280Z,6.72
2022-09-20T07:52:26.294Z,4.30
2022-09-20T07:54:59.363Z,20.17
2022-09-20T07:57:25.851Z,2.30
2022-09-20T07:59:56.011Z,13.35
2022-09-20T08:02:23.322Z,6.75
2022-09-20T08:04:49.994Z,6.13
2022-09-20T08:07:17.132Z,4.38
2022-09-20T08:09:43.795Z,5.88
2022-09-20T08:14:57.334Z,5.47
2022-09-20T08:20:07.202Z,8.80
2022-09-20T08:22:36.501Z,7.50
2022-09-20T08:25:03.224Z,7.13
2022-09-20T08:27:30.578Z,5.60
2022-09-20T08:29:57.806Z,7.68
2022-09-20T09:06:44.744Z,3.00
2022-09-20T11:03:08.170Z,4.05
2022-09-20T11:05:52.431Z,4.72
2022-09-20T11:08:26.686Z,1.83
2022-09-20T11:11:02.852Z,3.42
2022-09-20T11:13:42.898Z,3.50
2022-09-20T11:16:23.250Z,3.95
2022-09-20T11:19:05.757Z,1.48
2022-09-20T11:21:44.181Z,1.92
2022-09-20T11:28:41.567Z,3.33
2022-09-20T11:31:20.151Z,3.72
2022-09-20T11:34:35.176Z,2.03
2022-09-20T11:37:04.961Z,2.28
2022-09-20T11:39:39.641Z,5.07
2022-09-20T11:42:13.325Z,3.47
2022-09-20T11:44:41.806Z,3.67
2022-09-20T11:47:42.831Z,7.68
2022-09-20T11:50:47.689Z,7.60
2022-09-20T11:57:17.024Z,10.38
2022-09-20T12:00:01.839Z,7.10
2022-09-20T12:06:43.302Z,8.10
2022-09-20T12:10:08.251Z,8.57
2022-09-20T14:40:57.126Z,1.15
2022-09-20T14:43:37.448Z,0.70
2022-09-20T14:46:24.657Z,3.47
2022-09-20T15:01:24.744Z,1.77
2022-09-20T15:03:52.255Z,0.65
2022-09-20T15:06:19.161Z,1.83
2022-09-20T15:09:21.944Z,2.92
2022-09-20T15:12:35.328Z,0.65
2022-09-20T15:15:03.144Z,1.42
2022-09-20T15:25:19.240Z,0.57
2022-09-20T15:27:52.329Z,0.45
2022-09-20T15:30:23.368Z,1.08
2022-09-20T15:32:53.325Z,0.22
2022-09-20T15:35:20.031Z,0.57
2022-09-20T15:40:13.419Z,1.60
2022-09-20T15:45:09.953Z,2.75
2022-09-20T15:47:37.737Z,5.53
2022-09-20T15:50:07.059Z,3.25
2022-09-20T15:52:39.919Z,3.45
2022-09-20T15:55:11.215Z,2.45
2022-09-20T15:57:41.960Z,0.93
2022-09-20T16:00:09.008Z,3.00
2022-09-20T16:02:35.850Z,1.10
2022-09-20T16:07:28.956Z,4.32
2022-09-20T16:10:08.705Z,1.30
2022-09-20T16:12:35.482Z,1.85
2022-09-20T16:22:20.824Z,3.72
2022-09-20T16:24:47.239Z,6.55
2022-09-20T16:27:40.674Z,10.13
2022-09-20T16:30:08.167Z,2.17
2022-09-20T16:32:48.707Z,3.53
2022-09-20T16:35:16.859Z,6.38
2022-09-20T16:37:43.316Z,3.30
2022-09-20T16:42:59.376Z,5.07
2022-09-20T16:45:28.651Z,3.38
2022-09-20T16:47:58.165Z,4.05
2022-09-20T16:50:24.763Z,4.00
2022-09-20T16:53:02.630Z,2.08
2022-09-20T16:55:32.456Z,3.00
2022-09-20T16:58:01.844Z,3.20
2022-09-20T17:00:28.270Z,4.10
2022-09-20T17:05:40.584Z,2.67
2022-09-20T17:08:26.224Z,4.43
2022-09-20T17:10:58.031Z,6.78
2022-09-20T17:17:16.066Z,1.75
2022-09-20T17:48:38.363Z,5.20
2022-09-20T17:51:09.180Z,3.25
2022-09-20T17:53:38.420Z,5.40
2022-09-20T17:56:05.550Z,12.02
2022-09-20T17:58:36.093Z,10.57
2022-09-20T18:01:12.826Z,4.18
2022-09-20T18:07:49.754Z,4.57
2022-09-20T18:10:21.667Z,3.83
2022-09-20T18:12:48.235Z,3.72
2022-09-20T18:15:27.225Z,7.32
2022-09-20T18:17:54.647Z,3.70
2022-09-20T18:20:21.282Z,4.82
2022-09-20T18:23:19.809Z,3.88
2022-09-20T18:28:34.927Z,4.07
2022-09-20T18:31:04.608Z,5.55
2022-09-20T18:36:13.118Z,4.32
2022-09-20T18:41:14.196Z,9.30
2022-09-20T18:43:44.879Z,6.65
2022-09-20T18:46:12.715Z,8.57
2022-09-20T18:48:50.734Z,6.03
2022-09-20T18:55:22.023Z,5.63
2022-09-20T20:53:06.511Z,15.88
2022-09-20T21:50:43.526Z,18.88
2022-09-20T21:53:43.141Z,15.82
2022-09-20T21:56:28.539Z,16.17
2022-09-20T22:02:34.878Z,15.00
2022-09-20T22:08:43.877Z,11.32
2022-09-20T22:11:55.370Z,13.48
2022-09-20T22:14:22.275Z,15.73
2022-09-20T22:16:53.324Z,11.07
2022-09-20T22:19:20.555Z,12.90
2022-09-20T22:21:49.883Z,18.23
2022-09-20T22:24:17.970Z,13.18
2022-09-20T22:26:47.391Z,19.30
2022-09-20T22:29:14.995Z,14.75
2022-09-20T22:31:47.235Z,17.60
2022-09-20T22:34:25.470Z,18.35
2022-09-20T22:36:52.727Z,20.15
2022-09-20T22:39:22.667Z,21.98
2022-09-20T22:41:51.152Z,24.30
2022-09-20T22:44:17.787Z,18.23
2022-09-20T22:46:44.597Z,17.10
2022-09-20T22:51:38.294Z,16.13
2022-09-20T22:54:07.727Z,20.73
2022-09-20T22:56:34.783Z,13.18
2022-09-20T22:59:08.001Z,17.27
2022-09-20T23:01:42.460Z,14.98
2022-09-20T23:04:20.253Z,20.90
2022-09-20T23:06:49.389Z,18.95
2022-09-20T23:09:18.084Z,18.42
2022-09-20T23:11:46.273Z,19.95
2022-09-20T23:14:15.868Z,16.58
2022-09-20T23:16:43.536Z,19.42
2022-09-20T23:19:12.930Z,16.58
2022-09-20T23:21:42.442Z,16.45
2022-09-20T23:24:12.209Z,14.32
2022-09-20T23:26:40.373Z,19.13
2022-09-20T23:29:11.079Z,12.38
2022-09-20T23:31:39.083Z,16.48
2022-09-20T23:34:07.774Z,12.48
2022-09-20T23:36:38.294Z,15.27
2022-09-20T23:39:06.807Z,13.75
2022-09-20T23:41:34.190Z,9.77
2022-09-20T23:44:06.679Z,11.05
2022-09-20T23:46:33.993Z,12.98
2022-09-20T23:49:00.546Z,12.68
2022-09-20T23:51:28.717Z,10.32
2022-09-20T23:53:55.506Z,9.38
2022-09-20T23:58:50.417Z,7.32
